sensor_id;sensor_type;location;lat;lon;timestamp;P1;durP1;ratioP1;P2;durP2;ratioP2
75459;SDS011;64039;53.060;9.342;2024-01-30T00:01:15;11.10;;;5.63;;
75459;SDS011;64039;53.060;9.342;2024-01-30T00:03:40;9.80;;;5.35;;
75459;SDS011;64039;53.060;9.342;2024-01-30T00:06:06;9.80;;;5.07;;
75459;SDS011;64039;53.060;9.342;2024-01-30T00:08:33;7.60;;;5.05;;
75459;SDS011;64039;53.060;9.342;2024-01-30T00:10:58;8.27;;;5.25;;
75459;SDS011;64039;53.060;9.342;2024-01-30T00:13:23;9.32;;;5.10;;
75459;SDS011;64039;53.060;9.342;2024-01-30T00:15:49;11.90;;;6.13;;
75459;SDS011;64039;53.060;9.342;2024-01-30T00:18:14;7.88;;;5.43;;
75459;SDS011;64039;53.060;9.342;2024-01-30T00:20:40;10.07;;;5.78;;
75459;SDS011;64039;53.060;9.342;2024-01-30T00:23:05;9.85;;;5.25;;
75459;SDS011;64039;53.060;9.342;2024-01-30T00:25:31;11.25;;;5.93;;
75459;SDS011;64039;53.060;9.342;2024-01-30T00:27:58;8.57;;;5.55;;
75459;SDS011;64039;53.060;9.342;2024-01-30T00:30:23;10.50;;;5.47;;
75459;SDS011;64039;53.060;9.342;2024-01-30T00:32:49;10.30;;;5.40;;
75459;SDS011;64039;53.060;9.342;2024-01-30T00:35:14;9.13;;;5.90;;
75459;SDS011;64039;53.060;9.342;2024-01-30T00:37:39;9.07;;;5.75;;
75459;SDS011;64039;53.060;9.342;2024-01-30T00:40:05;10.93;;;5.72;;
75459;SDS011;64039;53.060;9.342;2024-01-30T00:42:31;9.77;;;5.72;;
75459;SDS011;64039;53.060;9.342;2024-01-30T00:44:57;9.68;;;5.97;;
75459;SDS011;64039;53.060;9.342;2024-01-30T00:47:22;11.43;;;5.95;;
75459;SDS011;64039;53.060;9.342;2024-01-30T00:49:48;9.68;;;5.90;;
75459;SDS011;64039;53.060;9.342;2024-01-30T00:52:13;10.65;;;5.97;;
75459;SDS011;64039;53.060;9.342;2024-01-30T00:54:39;10.65;;;6.30;;
75459;SDS011;64039;53.060;9.342;2024-01-30T00:57:04;9.60;;;5.43;;
75459;SDS011;64039;53.060;9.342;2024-01-30T00:59:30;9.52;;;5.57;;
75459;SDS011;64039;53.060;9.342;2024-01-30T01:01:55;8.95;;;5.63;;
75459;SDS011;64039;53.060;9.342;2024-01-30T01:04:20;11.00;;;5.72;;
75459;SDS011;64039;53.060;9.342;2024-01-30T01:06:46;11.70;;;6.25;;
75459;SDS011;64039;53.060;9.342;2024-01-30T01:09:12;10.77;;;5.32;;
75459;SDS011;64039;53.060;9.342;2024-01-30T01:11:38;10.68;;;5.78;;
75459;SDS011;64039;53.060;9.342;2024-01-30T01:14:03;11.65;;;5.97;;
75459;SDS011;64039;53.060;9.342;2024-01-30T01:16:29;10.15;;;5.78;;
75459;SDS011;64039;53.060;9.342;2024-01-30T01:18:55;13.35;;;6.05;;
75459;SDS011;64039;53.060;9.342;2024-01-30T01:21:21;10.25;;;5.95;;
75459;SDS011;64039;53.060;9.342;2024-01-30T01:23:46;11.63;;;6.35;;
75459;SDS011;64039;53.060;9.342;2024-01-30T01:26:12;10.35;;;6.00;;
75459;SDS011;64039;53.060;9.342;2024-01-30T01:28:39;12.27;;;5.95;;
75459;SDS011;64039;53.060;9.342;2024-01-30T01:31:06;9.90;;;6.13;;
75459;SDS011;64039;53.060;9.342;2024-01-30T01:33:31;10.85;;;6.22;;
75459;SDS011;64039;53.060;9.342;2024-01-30T01:35:58;11.43;;;6.32;;
75459;SDS011;64039;53.060;9.342;2024-01-30T01:38:27;9.90;;;6.47;;
75459;SDS011;64039;53.060;9.342;2024-01-30T01:40:53;11.02;;;5.80;;
75459;SDS011;64039;53.060;9.342;2024-01-30T01:43:19;10.82;;;6.43;;
75459;SDS011;64039;53.060;9.342;2024-01-30T01:45:44;12.77;;;6.43;;
75459;SDS011;64039;53.060;9.342;2024-01-30T01:48:10;9.32;;;5.85;;
75459;SDS011;64039;53.060;9.342;2024-01-30T01:50:37;10.43;;;6.10;;
75459;SDS011;64039;53.060;9.342;2024-01-30T01:53:03;12.48;;;6.32;;
75459;SDS011;64039;53.060;9.342;2024-01-30T01:55:31;10.38;;;5.95;;
75459;SDS011;64039;53.060;9.342;2024-01-30T01:57:57;11.27;;;6.40;;
75459;SDS011;64039;53.060;9.342;2024-01-30T02:00:23;12.35;;;6.32;;
75459;SDS011;64039;53.060;9.342;2024-01-30T02:02:49;14.05;;;6.78;;
75459;SDS011;64039;53.060;9.342;2024-01-30T02:05:15;10.60;;;6.07;;
75459;SDS011;64039;53.060;9.342;2024-01-30T02:07:41;11.20;;;6.63;;
75459;SDS011;64039;53.060;9.342;2024-01-30T02:10:07;13.90;;;7.32;;
75459;SDS011;64039;53.060;9.342;2024-01-30T02:12:34;11.38;;;7.00;;
75459;SDS011;64039;53.060;9.342;2024-01-30T02:14:59;11.48;;;6.60;;
75459;SDS011;64039;53.060;9.342;2024-01-30T02:17:25;12.60;;;6.43;;
75459;SDS011;64039;53.060;9.342;2024-01-30T02:19:51;12.48;;;7.15;;
75459;SDS011;64039;53.060;9.342;2024-01-30T02:22:17;10.82;;;6.88;;
75459;SDS011;64039;53.060;9.342;2024-01-30T02:24:43;11.40;;;6.38;;
75459;SDS011;64039;53.060;9.342;2024-01-30T02:27:08;10.98;;;6.70;;
75459;SDS011;64039;53.060;9.342;2024-01-30T02:29:34;10.55;;;6.82;;
75459;SDS011;64039;53.060;9.342;2024-01-30T02:31:59;11.98;;;7.25;;
75459;SDS011;64039;53.060;9.342;2024-01-30T02:34:24;10.48;;;6.85;;
75459;SDS011;64039;53.060;9.342;2024-01-30T02:36:50;14.05;;;7.13;;
75459;SDS011;64039;53.060;9.342;2024-01-30T02:39:15;13.32;;;7.18;;
75459;SDS011;64039;53.060;9.342;2024-01-30T02:41:41;13.20;;;6.80;;
75459;SDS011;64039;53.060;9.342;2024-01-30T02:44:06;11.60;;;7.10;;
75459;SDS011;64039;53.060;9.342;2024-01-30T02:46:31;11.60;;;6.60;;
75459;SDS011;64039;53.060;9.342;2024-01-30T02:48:57;14.52;;;7.25;;
75459;SDS011;64039;53.060;9.342;2024-01-30T02:51:22;12.00;;;7.00;;
75459;SDS011;64039;53.060;9.342;2024-01-30T02:53:48;11.15;;;7.28;;
75459;SDS011;64039;53.060;9.342;2024-01-30T02:56:13;13.52;;;6.95;;
75459;SDS011;64039;53.060;9.342;2024-01-30T02:58:39;11.43;;;6.80;;
75459;SDS011;64039;53.060;9.342;2024-01-30T03:01:05;12.45;;;6.88;;
75459;SDS011;64039;53.060;9.342;2024-01-30T03:03:30;13.98;;;7.20;;
75459;SDS011;64039;53.060;9.342;2024-01-30T03:05:56;12.77;;;7.10;;
75459;SDS011;64039;53.060;9.342;2024-01-30T03:08:21;11.50;;;6.45;;
75459;SDS011;64039;53.060;9.342;2024-01-30T03:10:46;13.20;;;6.65;;
75459;SDS011;64039;53.060;9.342;2024-01-30T03:13:12;12.65;;;6.82;;
75459;SDS011;64039;53.060;9.342;2024-01-30T03:15:37;13.25;;;7.18;;
75459;SDS011;64039;53.060;9.342;2024-01-30T03:18:03;13.10;;;7.20;;
75459;SDS011;64039;53.060;9.342;2024-01-30T03:20:31;11.90;;;7.15;;
75459;SDS011;64039;53.060;9.342;2024-01-30T03:22:57;11.40;;;7.05;;
75459;SDS011;64039;53.060;9.342;2024-01-30T03:25:24;11.70;;;7.22;;
75459;SDS011;64039;53.060;9.342;2024-01-30T03:27:50;12.30;;;6.85;;
75459;SDS011;64039;53.060;9.342;2024-01-30T03:30:15;12.68;;;6.90;;
75459;SDS011;64039;53.060;9.342;2024-01-30T03:32:40;10.65;;;6.75;;
75459;SDS011;64039;53.060;9.342;2024-01-30T03:35:06;11.02;;;7.13;;
75459;SDS011;64039;53.060;9.342;2024-01-30T03:37:31;13.63;;;6.85;;
75459;SDS011;64039;53.060;9.342;2024-01-30T03:39:57;13.07;;;6.90;;
75459;SDS011;64039;53.060;9.342;2024-01-30T03:42:22;11.75;;;6.88;;
75459;SDS011;64039;53.060;9.342;2024-01-30T03:44:48;12.88;;;7.70;;
75459;SDS011;64039;53.060;9.342;2024-01-30T03:47:13;10.68;;;7.07;;
75459;SDS011;64039;53.060;9.342;2024-01-30T03:49:39;12.25;;;7.50;;
75459;SDS011;64039;53.060;9.342;2024-01-30T03:52:05;14.27;;;7.32;;
75459;SDS011;64039;53.060;9.342;2024-01-30T03:54:30;13.65;;;7.40;;
75459;SDS011;64039;53.060;9.342;2024-01-30T03:56:55;12.70;;;6.70;;
75459;SDS011;64039;53.060;9.342;2024-01-30T03:59:21;11.80;;;6.45;;
75459;SDS011;64039;53.060;9.342;2024-01-30T04:01:52;11.32;;;6.95;;
75459;SDS011;64039;53.060;9.342;2024-01-30T04:04:17;14.27;;;7.30;;
75459;SDS011;64039;53.060;9.342;2024-01-30T04:06:43;13.63;;;7.35;;
75459;SDS011;64039;53.060;9.342;2024-01-30T04:09:09;12.48;;;7.32;;
75459;SDS011;64039;53.060;9.342;2024-01-30T04:11:35;16.00;;;7.80;;
75459;SDS011;64039;53.060;9.342;2024-01-30T04:14:00;15.48;;;7.75;;
75459;SDS011;64039;53.060;9.342;2024-01-30T04:16:26;13.45;;;7.35;;
75459;SDS011;64039;53.060;9.342;2024-01-30T04:18:52;15.35;;;7.93;;
75459;SDS011;64039;53.060;9.342;2024-01-30T04:21:17;12.40;;;7.30;;
75459;SDS011;64039;53.060;9.342;2024-01-30T04:23:43;16.08;;;7.75;;
75459;SDS011;64039;53.060;9.342;2024-01-30T04:26:08;12.88;;;7.45;;
75459;SDS011;64039;53.060;9.342;2024-01-30T04:28:34;12.45;;;7.40;;
75459;SDS011;64039;53.060;9.342;2024-01-30T04:30:59;13.60;;;7.55;;
75459;SDS011;64039;53.060;9.342;2024-01-30T04:33:24;13.82;;;7.20;;
75459;SDS011;64039;53.060;9.342;2024-01-30T04:35:50;14.70;;;7.88;;
75459;SDS011;64039;53.060;9.342;2024-01-30T04:38:17;11.85;;;7.57;;
75459;SDS011;64039;53.060;9.342;2024-01-30T04:40:42;11.57;;;7.50;;
75459;SDS011;64039;53.060;9.342;2024-01-30T04:43:07;15.57;;;7.55;;
75459;SDS011;64039;53.060;9.342;2024-01-30T04:45:33;13.52;;;7.78;;
75459;SDS011;64039;53.060;9.342;2024-01-30T04:47:58;13.60;;;7.53;;
75459;SDS011;64039;53.060;9.342;2024-01-30T04:50:24;12.32;;;7.97;;
75459;SDS011;64039;53.060;9.342;2024-01-30T04:52:49;13.82;;;8.40;;
75459;SDS011;64039;53.060;9.342;2024-01-30T04:55:14;12.30;;;7.50;;
75459;SDS011;64039;53.060;9.342;2024-01-30T04:57:40;14.80;;;8.20;;
75459;SDS011;64039;53.060;9.342;2024-01-30T05:00:06;14.18;;;8.30;;
75459;SDS011;64039;53.060;9.342;2024-01-30T05:02:31;14.70;;;8.27;;
75459;SDS011;64039;53.060;9.342;2024-01-30T05:04:57;12.95;;;7.90;;
75459;SDS011;64039;53.060;9.342;2024-01-30T05:07:24;14.80;;;8.57;;
75459;SDS011;64039;53.060;9.342;2024-01-30T05:09:50;17.70;;;9.70;;
75459;SDS011;64039;53.060;9.342;2024-01-30T05:12:15;13.80;;;8.13;;
75459;SDS011;64039;53.060;9.342;2024-01-30T05:14:41;14.43;;;9.02;;
75459;SDS011;64039;53.060;9.342;2024-01-30T05:17:06;16.65;;;8.95;;
75459;SDS011;64039;53.060;9.342;2024-01-30T05:19:34;15.07;;;8.57;;
75459;SDS011;64039;53.060;9.342;2024-01-30T05:21:59;15.32;;;8.20;;
75459;SDS011;64039;53.060;9.342;2024-01-30T05:24:25;14.88;;;8.90;;
75459;SDS011;64039;53.060;9.342;2024-01-30T05:26:50;14.63;;;8.45;;
75459;SDS011;64039;53.060;9.342;2024-01-30T05:29:16;13.35;;;8.13;;
75459;SDS011;64039;53.060;9.342;2024-01-30T05:31:41;20.10;;;8.82;;
75459;SDS011;64039;53.060;9.342;2024-01-30T05:34:07;16.42;;;8.95;;
75459;SDS011;64039;53.060;9.342;2024-01-30T05:36:34;16.80;;;8.65;;
75459;SDS011;64039;53.060;9.342;2024-01-30T05:38:59;13.50;;;8.30;;
75459;SDS011;64039;53.060;9.342;2024-01-30T05:41:25;16.52;;;9.30;;
75459;SDS011;64039;53.060;9.342;2024-01-30T05:43:50;14.02;;;8.07;;
75459;SDS011;64039;53.060;9.342;2024-01-30T05:46:15;15.95;;;9.73;;
75459;SDS011;64039;53.060;9.342;2024-01-30T05:48:41;17.45;;;9.05;;
75459;SDS011;64039;53.060;9.342;2024-01-30T05:51:07;14.57;;;8.43;;
75459;SDS011;64039;53.060;9.342;2024-01-30T05:53:33;11.32;;;7.70;;
75459;SDS011;64039;53.060;9.342;2024-01-30T05:56:01;14.20;;;8.10;;
75459;SDS011;64039;53.060;9.342;2024-01-30T05:58:27;13.63;;;8.43;;
75459;SDS011;64039;53.060;9.342;2024-01-30T06:00:53;14.27;;;8.60;;
75459;SDS011;64039;53.060;9.342;2024-01-30T06:03:18;13.20;;;8.23;;
75459;SDS011;64039;53.060;9.342;2024-01-30T06:05:44;13.70;;;8.45;;
75459;SDS011;64039;53.060;9.342;2024-01-30T06:08:09;12.93;;;8.07;;
75459;SDS011;64039;53.060;9.342;2024-01-30T06:10:35;14.15;;;9.23;;
75459;SDS011;64039;53.060;9.342;2024-01-30T06:13:01;17.10;;;8.82;;
75459;SDS011;64039;53.060;9.342;2024-01-30T06:15:27;15.48;;;8.50;;
75459;SDS011;64039;53.060;9.342;2024-01-30T06:17:55;15.10;;;9.48;;
75459;SDS011;64039;53.060;9.342;2024-01-30T06:20:20;14.18;;;8.70;;
75459;SDS011;64039;53.060;9.342;2024-01-30T06:22:46;15.23;;;8.27;;
75459;SDS011;64039;53.060;9.342;2024-01-30T06:25:11;15.73;;;9.18;;
75459;SDS011;64039;53.060;9.342;2024-01-30T06:27:37;22.73;;;9.52;;
75459;SDS011;64039;53.060;9.342;2024-01-30T06:30:03;15.60;;;9.32;;
75459;SDS011;64039;53.060;9.342;2024-01-30T06:32:29;15.20;;;9.23;;
75459;SDS011;64039;53.060;9.342;2024-01-30T06:34:59;19.33;;;9.43;;
75459;SDS011;64039;53.060;9.342;2024-01-30T06:37:27;15.05;;;9.15;;
75459;SDS011;64039;53.060;9.342;2024-01-30T06:39:53;13.23;;;8.43;;
75459;SDS011;64039;53.060;9.342;2024-01-30T06:42:18;17.05;;;9.27;;
75459;SDS011;64039;53.060;9.342;2024-01-30T06:44:44;16.02;;;9.23;;
75459;SDS011;64039;53.060;9.342;2024-01-30T06:47:09;15.25;;;8.07;;
75459;SDS011;64039;53.060;9.342;2024-01-30T06:49:35;14.55;;;8.68;;
75459;SDS011;64039;53.060;9.342;2024-01-30T06:52:04;15.40;;;8.43;;
75459;SDS011;64039;53.060;9.342;2024-01-30T06:54:30;20.77;;;9.75;;
75459;SDS011;64039;53.060;9.342;2024-01-30T06:56:56;15.50;;;8.70;;
75459;SDS011;64039;53.060;9.342;2024-01-30T06:59:21;14.65;;;9.10;;
75459;SDS011;64039;53.060;9.342;2024-01-30T07:01:47;15.32;;;9.10;;
75459;SDS011;64039;53.060;9.342;2024-01-30T07:04:12;16.38;;;9.43;;
75459;SDS011;64039;53.060;9.342;2024-01-30T07:06:38;16.35;;;8.52;;
75459;SDS011;64039;53.060;9.342;2024-01-30T07:09:03;15.23;;;8.50;;
75459;SDS011;64039;53.060;9.342;2024-01-30T07:11:28;17.02;;;9.38;;
75459;SDS011;64039;53.060;9.342;2024-01-30T07:13:54;14.10;;;8.82;;
75459;SDS011;64039;53.060;9.342;2024-01-30T07:16:19;17.75;;;9.05;;
75459;SDS011;64039;53.060;9.342;2024-01-30T07:18:45;15.10;;;9.68;;
75459;SDS011;64039;53.060;9.342;2024-01-30T07:21:10;18.58;;;10.35;;
75459;SDS011;64039;53.060;9.342;2024-01-30T07:23:36;17.83;;;9.65;;
75459;SDS011;64039;53.060;9.342;2024-01-30T07:26:07;15.40;;;8.93;;
75459;SDS011;64039;53.060;9.342;2024-01-30T07:28:33;14.77;;;8.93;;
75459;SDS011;64039;53.060;9.342;2024-01-30T07:30:59;16.10;;;9.50;;
75459;SDS011;64039;53.060;9.342;2024-01-30T07:33:25;18.85;;;10.27;;
75459;SDS011;64039;53.060;9.342;2024-01-30T07:35:52;19.08;;;9.60;;
75459;SDS011;64039;53.060;9.342;2024-01-30T07:38:17;15.30;;;8.90;;
75459;SDS011;64039;53.060;9.342;2024-01-30T07:40:43;18.08;;;9.45;;
75459;SDS011;64039;53.060;9.342;2024-01-30T07:43:08;15.75;;;9.05;;
75459;SDS011;64039;53.060;9.342;2024-01-30T07:45:34;17.65;;;10.18;;
75459;SDS011;64039;53.060;9.342;2024-01-30T07:48:00;17.88;;;9.38;;
75459;SDS011;64039;53.060;9.342;2024-01-30T07:50:26;16.10;;;9.13;;
75459;SDS011;64039;53.060;9.342;2024-01-30T07:52:52;16.10;;;9.63;;
75459;SDS011;64039;53.060;9.342;2024-01-30T07:55:22;13.60;;;9.10;;
75459;SDS011;64039;53.060;9.342;2024-01-30T07:57:54;15.50;;;9.07;;
75459;SDS011;64039;53.060;9.342;2024-01-30T08:00:20;17.92;;;9.57;;
75459;SDS011;64039;53.060;9.342;2024-01-30T08:02:47;15.95;;;9.40;;
75459;SDS011;64039;53.060;9.342;2024-01-30T08:05:18;17.02;;;9.40;;
75459;SDS011;64039;53.060;9.342;2024-01-30T08:07:43;14.90;;;9.18;;
75459;SDS011;64039;53.060;9.342;2024-01-30T08:10:10;14.57;;;9.25;;
75459;SDS011;64039;53.060;9.342;2024-01-30T08:12:36;17.35;;;10.05;;
75459;SDS011;64039;53.060;9.342;2024-01-30T08:15:02;20.20;;;10.57;;
75459;SDS011;64039;53.060;9.342;2024-01-30T08:17:28;17.05;;;10.02;;
75459;SDS011;64039;53.060;9.342;2024-01-30T08:19:53;17.33;;;9.57;;
75459;SDS011;64039;53.060;9.342;2024-01-30T08:22:19;16.42;;;9.65;;
75459;SDS011;64039;53.060;9.342;2024-01-30T08:24:44;20.13;;;9.82;;
75459;SDS011;64039;53.060;9.342;2024-01-30T08:27:09;15.90;;;8.05;;
75459;SDS011;64039;53.060;9.342;2024-01-30T08:29:35;14.75;;;8.48;;
75459;SDS011;64039;53.060;9.342;2024-01-30T08:32:01;23.92;;;13.05;;
75459;SDS011;64039;53.060;9.342;2024-01-30T08:34:27;18.80;;;11.07;;
75459;SDS011;64039;53.060;9.342;2024-01-30T08:36:53;18.00;;;9.75;;
75459;SDS011;64039;53.060;9.342;2024-01-30T08:39:18;14.18;;;8.63;;
75459;SDS011;64039;53.060;9.342;2024-01-30T08:41:44;17.35;;;8.60;;
75459;SDS011;64039;53.060;9.342;2024-01-30T08:44:10;15.13;;;8.63;;
75459;SDS011;64039;53.060;9.342;2024-01-30T08:46:36;13.43;;;8.43;;
75459;SDS011;64039;53.060;9.342;2024-01-30T08:49:02;14.43;;;8.82;;
75459;SDS011;64039;53.060;9.342;2024-01-30T08:51:29;14.68;;;8.55;;
75459;SDS011;64039;53.060;9.342;2024-01-30T08:53:54;12.82;;;8.20;;
75459;SDS011;64039;53.060;9.342;2024-01-30T08:56:20;13.25;;;8.60;;
75459;SDS011;64039;53.060;9.342;2024-01-30T08:58:45;13.73;;;8.18;;
75459;SDS011;64039;53.060;9.342;2024-01-30T09:01:11;13.60;;;8.15;;
75459;SDS011;64039;53.060;9.342;2024-01-30T09:03:36;14.07;;;7.70;;
75459;SDS011;64039;53.060;9.342;2024-01-30T09:06:08;13.93;;;8.35;;
75459;SDS011;64039;53.060;9.342;2024-01-30T09:08:34;16.42;;;9.00;;
75459;SDS011;64039;53.060;9.342;2024-01-30T09:10:59;15.05;;;8.65;;
75459;SDS011;64039;53.060;9.342;2024-01-30T09:13:25;15.57;;;8.65;;
75459;SDS011;64039;53.060;9.342;2024-01-30T09:15:50;16.25;;;7.95;;
75459;SDS011;64039;53.060;9.342;2024-01-30T09:18:16;17.85;;;8.80;;
75459;SDS011;64039;53.060;9.342;2024-01-30T09:20:41;15.68;;;9.52;;
75459;SDS011;64039;53.060;9.342;2024-01-30T09:23:07;16.73;;;8.70;;
75459;SDS011;64039;53.060;9.342;2024-01-30T09:25:33;15.88;;;8.40;;
75459;SDS011;64039;53.060;9.342;2024-01-30T09:27:59;15.13;;;8.05;;
75459;SDS011;64039;53.060;9.342;2024-01-30T09:30:24;18.42;;;9.30;;
75459;SDS011;64039;53.060;9.342;2024-01-30T09:32:50;13.57;;;7.93;;
75459;SDS011;64039;53.060;9.342;2024-01-30T09:35:15;13.43;;;8.10;;
75459;SDS011;64039;53.060;9.342;2024-01-30T09:37:41;12.32;;;7.60;;
75459;SDS011;64039;53.060;9.342;2024-01-30T09:40:06;13.60;;;7.55;;
75459;SDS011;64039;53.060;9.342;2024-01-30T09:42:36;13.57;;;8.13;;
75459;SDS011;64039;53.060;9.342;2024-01-30T09:45:02;16.67;;;7.90;;
75459;SDS011;64039;53.060;9.342;2024-01-30T09:47:32;14.63;;;7.72;;
75459;SDS011;64039;53.060;9.342;2024-01-30T09:50:05;14.27;;;7.63;;
75459;SDS011;64039;53.060;9.342;2024-01-30T09:52:31;14.35;;;7.88;;
75459;SDS011;64039;53.060;9.342;2024-01-30T09:54:58;13.57;;;7.45;;
75459;SDS011;64039;53.060;9.342;2024-01-30T09:57:24;12.32;;;7.45;;
75459;SDS011;64039;53.060;9.342;2024-01-30T09:59:51;12.35;;;7.25;;
75459;SDS011;64039;53.060;9.342;2024-01-30T10:02:19;13.95;;;7.55;;
75459;SDS011;64039;53.060;9.342;2024-01-30T10:04:44;14.35;;;7.57;;
75459;SDS011;64039;53.060;9.342;2024-01-30T10:07:12;10.10;;;6.90;;
75459;SDS011;64039;53.060;9.342;2024-01-30T10:09:39;11.63;;;7.55;;
75459;SDS011;64039;53.060;9.342;2024-01-30T10:12:05;12.75;;;7.60;;
75459;SDS011;64039;53.060;9.342;2024-01-30T10:14:31;12.82;;;7.45;;
75459;SDS011;64039;53.060;9.342;2024-01-30T10:16:57;15.48;;;7.60;;
75459;SDS011;64039;53.060;9.342;2024-01-30T10:19:23;15.43;;;8.48;;
75459;SDS011;64039;53.060;9.342;2024-01-30T10:21:48;10.50;;;6.93;;
75459;SDS011;64039;53.060;9.342;2024-01-30T10:24:14;22.00;;;8.60;;
75459;SDS011;64039;53.060;9.342;2024-01-30T10:26:39;28.35;;;8.30;;
75459;SDS011;64039;53.060;9.342;2024-01-30T10:29:05;17.35;;;8.10;;
75459;SDS011;64039;53.060;9.342;2024-01-30T10:31:30;12.00;;;7.45;;
75459;SDS011;64039;53.060;9.342;2024-01-30T10:33:56;17.67;;;7.43;;
75459;SDS011;64039;53.060;9.342;2024-01-30T10:36:21;13.50;;;7.25;;
75459;SDS011;64039;53.060;9.342;2024-01-30T10:38:53;16.27;;;6.83;;
75459;SDS011;64039;53.060;9.342;2024-01-30T10:41:26;14.68;;;6.90;;
75459;SDS011;64039;53.060;9.342;2024-01-30T10:44:01;12.90;;;7.32;;
75459;SDS011;64039;53.060;9.342;2024-01-30T10:46:33;15.77;;;6.70;;
75459;SDS011;64039;53.060;9.342;2024-01-30T10:49:00;12.88;;;7.47;;
75459;SDS011;64039;53.060;9.342;2024-01-30T10:51:28;16.00;;;7.45;;
75459;SDS011;64039;53.060;9.342;2024-01-30T10:53:53;13.60;;;7.20;;
75459;SDS011;64039;53.060;9.342;2024-01-30T10:56:21;10.60;;;6.75;;
75459;SDS011;64039;53.060;9.342;2024-01-30T10:58:50;13.32;;;7.18;;
75459;SDS011;64039;53.060;9.342;2024-01-30T11:01:19;12.55;;;7.28;;
75459;SDS011;64039;53.060;9.342;2024-01-30T11:03:48;12.35;;;6.85;;
75459;SDS011;64039;53.060;9.342;2024-01-30T11:06:16;12.48;;;6.57;;
75459;SDS011;64039;53.060;9.342;2024-01-30T11:08:43;12.30;;;6.60;;
75459;SDS011;64039;53.060;9.342;2024-01-30T11:11:09;12.75;;;7.18;;
75459;SDS011;64039;53.060;9.342;2024-01-30T11:13:35;9.80;;;6.90;;
75459;SDS011;64039;53.060;9.342;2024-01-30T11:16:02;12.90;;;7.05;;
75459;SDS011;64039;53.060;9.342;2024-01-30T11:18:31;13.30;;;6.80;;
75459;SDS011;64039;53.060;9.342;2024-01-30T11:20:58;13.40;;;6.78;;
75459;SDS011;64039;53.060;9.342;2024-01-30T11:23:27;11.65;;;7.32;;
75459;SDS011;64039;53.060;9.342;2024-01-30T11:25:53;12.20;;;7.30;;
75459;SDS011;64039;53.060;9.342;2024-01-30T11:28:20;12.25;;;7.18;;
75459;SDS011;64039;53.060;9.342;2024-01-30T11:30:47;12.10;;;6.75;;
75459;SDS011;64039;53.060;9.342;2024-01-30T11:33:15;11.13;;;6.70;;
75459;SDS011;64039;53.060;9.342;2024-01-30T11:35:52;10.95;;;6.47;;
75459;SDS011;64039;53.060;9.342;2024-01-30T11:38:18;12.23;;;7.25;;
75459;SDS011;64039;53.060;9.342;2024-01-30T11:40:43;11.63;;;6.50;;
75459;SDS011;64039;53.060;9.342;2024-01-30T11:43:09;11.30;;;6.15;;
75459;SDS011;64039;53.060;9.342;2024-01-30T11:45:35;12.43;;;6.78;;
75459;SDS011;64039;53.060;9.342;2024-01-30T11:48:02;10.90;;;6.40;;
75459;SDS011;64039;53.060;9.342;2024-01-30T11:50:31;11.18;;;5.97;;
75459;SDS011;64039;53.060;9.342;2024-01-30T11:52:57;10.98;;;7.15;;
75459;SDS011;64039;53.060;9.342;2024-01-30T11:55:24;11.98;;;7.05;;
75459;SDS011;64039;53.060;9.342;2024-01-30T11:57:49;12.35;;;6.80;;
75459;SDS011;64039;53.060;9.342;2024-01-30T12:00:15;11.00;;;6.90;;
75459;SDS011;64039;53.060;9.342;2024-01-30T12:02:43;10.13;;;6.38;;
75459;SDS011;64039;53.060;9.342;2024-01-30T12:05:09;13.55;;;6.90;;
75459;SDS011;64039;53.060;9.342;2024-01-30T12:07:35;10.85;;;6.65;;
75459;SDS011;64039;53.060;9.342;2024-01-30T12:10:01;11.68;;;7.03;;
75459;SDS011;64039;53.060;9.342;2024-01-30T12:12:27;11.18;;;6.32;;
75459;SDS011;64039;53.060;9.342;2024-01-30T12:14:54;11.05;;;6.22;;
75459;SDS011;64039;53.060;9.342;2024-01-30T12:17:28;10.57;;;6.13;;
75459;SDS011;64039;53.060;9.342;2024-01-30T12:20:02;12.20;;;6.13;;
75459;SDS011;64039;53.060;9.342;2024-01-30T12:22:38;8.98;;;5.72;;
75459;SDS011;64039;53.060;9.342;2024-01-30T12:25:09;12.50;;;6.45;;
75459;SDS011;64039;53.060;9.342;2024-01-30T12:27:36;11.57;;;5.72;;
75459;SDS011;64039;53.060;9.342;2024-01-30T12:30:09;9.80;;;6.22;;
75459;SDS011;64039;53.060;9.342;2024-01-30T12:32:35;8.93;;;6.10;;
75459;SDS011;64039;53.060;9.342;2024-01-30T12:35:02;12.32;;;6.15;;
75459;SDS011;64039;53.060;9.342;2024-01-30T12:37:29;11.40;;;6.10;;
75459;SDS011;64039;53.060;9.342;2024-01-30T12:39:55;13.40;;;6.13;;
75459;SDS011;64039;53.060;9.342;2024-01-30T12:42:21;11.32;;;6.78;;
75459;SDS011;64039;53.060;9.342;2024-01-30T12:44:48;11.43;;;6.47;;
75459;SDS011;64039;53.060;9.342;2024-01-30T12:47:14;10.15;;;6.18;;
75459;SDS011;64039;53.060;9.342;2024-01-30T12:49:41;9.98;;;6.15;;
75459;SDS011;64039;53.060;9.342;2024-01-30T12:52:09;11.32;;;6.97;;
75459;SDS011;64039;53.060;9.342;2024-01-30T12:54:35;11.50;;;6.57;;
75459;SDS011;64039;53.060;9.342;2024-01-30T12:57:01;11.00;;;6.50;;
75459;SDS011;64039;53.060;9.342;2024-01-30T12:59:26;10.60;;;5.88;;
75459;SDS011;64039;53.060;9.342;2024-01-30T13:01:51;11.25;;;6.20;;
75459;SDS011;64039;53.060;9.342;2024-01-30T13:04:17;8.77;;;5.88;;
75459;SDS011;64039;53.060;9.342;2024-01-30T13:06:42;9.10;;;6.00;;
75459;SDS011;64039;53.060;9.342;2024-01-30T13:09:08;10.15;;;6.63;;
75459;SDS011;64039;53.060;9.342;2024-01-30T13:11:34;12.05;;;6.07;;
75459;SDS011;64039;53.060;9.342;2024-01-30T13:13:59;12.15;;;6.45;;
75459;SDS011;64039;53.060;9.342;2024-01-30T13:16:25;11.77;;;6.18;;
75459;SDS011;64039;53.060;9.342;2024-01-30T13:18:51;11.88;;;6.85;;
75459;SDS011;64039;53.060;9.342;2024-01-30T13:21:16;13.20;;;6.63;;
75459;SDS011;64039;53.060;9.342;2024-01-30T13:23:42;10.23;;;6.15;;
75459;SDS011;64039;53.060;9.342;2024-01-30T13:26:08;10.00;;;5.95;;
75459;SDS011;64039;53.060;9.342;2024-01-30T13:28:33;10.18;;;6.03;;
75459;SDS011;64039;53.060;9.342;2024-01-30T13:30:59;9.73;;;6.00;;
75459;SDS011;64039;53.060;9.342;2024-01-30T13:33:24;10.10;;;6.07;;
75459;SDS011;64039;53.060;9.342;2024-01-30T13:35:50;11.07;;;5.72;;
75459;SDS011;64039;53.060;9.342;2024-01-30T13:38:15;10.13;;;6.30;;
75459;SDS011;64039;53.060;9.342;2024-01-30T13:40:41;10.43;;;6.22;;
75459;SDS011;64039;53.060;9.342;2024-01-30T13:43:06;10.63;;;6.32;;
75459;SDS011;64039;53.060;9.342;2024-01-30T13:45:32;11.10;;;6.50;;
75459;SDS011;64039;53.060;9.342;2024-01-30T13:47:57;14.27;;;6.47;;
75459;SDS011;64039;53.060;9.342;2024-01-30T13:50:24;10.98;;;6.05;;
75459;SDS011;64039;53.060;9.342;2024-01-30T13:52:49;11.85;;;6.43;;
75459;SDS011;64039;53.060;9.342;2024-01-30T13:55:15;8.65;;;5.93;;
75459;SDS011;64039;53.060;9.342;2024-01-30T13:57:40;11.57;;;6.00;;
75459;SDS011;64039;53.060;9.342;2024-01-30T14:00:06;13.48;;;6.00;;
75459;SDS011;64039;53.060;9.342;2024-01-30T14:02:32;11.90;;;6.18;;
75459;SDS011;64039;53.060;9.342;2024-01-30T14:04:58;10.85;;;5.72;;
75459;SDS011;64039;53.060;9.342;2024-01-30T14:07:23;9.30;;;5.68;;
75459;SDS011;64039;53.060;9.342;2024-01-30T14:09:49;11.40;;;6.53;;
75459;SDS011;64039;53.060;9.342;2024-01-30T14:12:15;9.63;;;6.72;;
75459;SDS011;64039;53.060;9.342;2024-01-30T14:14:40;10.82;;;5.57;;
75459;SDS011;64039;53.060;9.342;2024-01-30T14:17:06;13.30;;;6.20;;
75459;SDS011;64039;53.060;9.342;2024-01-30T14:19:33;10.05;;;6.15;;
75459;SDS011;64039;53.060;9.342;2024-01-30T14:22:00;13.73;;;6.35;;
75459;SDS011;64039;53.060;9.342;2024-01-30T14:24:26;9.50;;;5.97;;
75459;SDS011;64039;53.060;9.342;2024-01-30T14:26:52;11.93;;;6.72;;
75459;SDS011;64039;53.060;9.342;2024-01-30T14:29:17;11.02;;;6.00;;